createdAt,value
2023-01-07T00:03:21.130Z,7.00
2023-01-07T00:08:24.662Z,7.47
2023-01-07T00:13:28.184Z,8.23
2023-01-07T00:18:34.312Z,5.95
2023-01-07T00:23:39.748Z,7.47
2023-01-07T00:28:46.786Z,8.40
2023-01-07T00:34:07.034Z,8.75
2023-01-07T00:39:15.119Z,7.90
2023-01-07T00:44:18.613Z,7.95
2023-01-07T00:49:24.501Z,5.47
2023-01-07T00:54:28.081Z,7.07
2023-01-07T00:59:31.502Z,5.88
2023-01-07T01:04:36.496Z,5.03
2023-01-07T01:09:39.958Z,4.72
2023-01-07T01:14:43.421Z,5.68
2023-01-07T01:19:48.457Z,5.05
2023-01-07T01:24:53.259Z,4.78
2023-01-07T01:29:56.673Z,5.90
2023-01-07T01:35:01.432Z,6.80
2023-01-07T01:40:05.517Z,6.38
2023-01-07T01:45:12.524Z,5.85
2023-01-07T01:50:22.329Z,6.90
2023-01-07T01:55:34.704Z,7.30
2023-01-07T02:00:38.688Z,7.07
2023-01-07T02:05:44.519Z,6.32
2023-01-07T02:10:48.239Z,5.72
2023-01-07T02:16:00.542Z,7.25
2023-01-07T02:21:26.297Z,8.20
2023-01-07T02:26:59.404Z,11.25
2023-01-07T02:32:26.638Z,9.18
2023-01-07T02:37:41.011Z,9.15
2023-01-07T02:42:55.263Z,9.00
2023-01-07T02:48:03.327Z,8.05
2023-01-07T02:53:09.330Z,10.60
2023-01-07T02:58:43.553Z,11.70
2023-01-07T03:04:05.553Z,10.00
2023-01-07T03:09:16.540Z,8.98
2023-01-07T03:14:23.974Z,6.18
2023-01-07T03:19:32.678Z,7.68
2023-01-07T03:24:37.020Z,8.50
2023-01-07T03:29:40.700Z,7.03
2023-01-07T03:34:46.257Z,7.93
2023-01-07T03:39:51.403Z,6.22
2023-01-07T03:44:55.992Z,6.00
2023-01-07T03:50:01.024Z,6.60
2023-01-07T03:55:05.757Z,6.15
2023-01-07T04:00:12.328Z,6.22
2023-01-07T04:05:17.240Z,5.68
2023-01-07T04:10:20.983Z,6.97
2023-01-07T04:15:24.529Z,8.70
2023-01-07T04:20:29.515Z,6.70
2023-01-07T04:25:35.299Z,7.55
2023-01-07T04:30:39.056Z,8.25
2023-01-07T04:35:47.136Z,8.82
2023-01-07T04:40:50.945Z,7.78
2023-01-07T04:45:56.794Z,8.90
2023-01-07T04:51:01.877Z,9.55
2023-01-07T04:56:06.402Z,9.85
2023-01-07T05:01:11.361Z,8.77
2023-01-07T05:06:16.639Z,7.80
2023-01-07T05:11:22.065Z,9.98
2023-01-07T05:16:26.790Z,11.40
2023-01-07T05:21:32.004Z,11.35
2023-01-07T05:26:36.145Z,9.52
2023-01-07T05:31:41.045Z,11.02
2023-01-07T05:36:46.232Z,10.60
2023-01-07T05:41:49.835Z,13.30
2023-01-07T05:46:53.514Z,10.35
2023-01-07T05:51:58.564Z,9.65
2023-01-07T05:57:02.251Z,8.80
2023-01-07T06:02:06.358Z,10.20
2023-01-07T06:07:12.333Z,12.27
2023-01-07T06:12:16.790Z,10.82
2023-01-07T06:17:20.828Z,11.02
2023-01-07T06:22:25.889Z,9.77
2023-01-07T06:27:29.656Z,12.73
2023-01-07T06:32:33.479Z,11.93
2023-01-07T06:37:39.369Z,11.93
2023-01-07T06:42:43.036Z,11.40
2023-01-07T06:47:48.479Z,10.35
2023-01-07T06:52:53.935Z,11.48
2023-01-07T06:57:58.246Z,9.82
2023-01-07T07:03:01.807Z,10.82
2023-01-07T07:08:07.234Z,9.25
2023-01-07T07:13:12.067Z,9.30
2023-01-07T07:18:15.768Z,11.32
2023-01-07T07:23:20.978Z,11.55
2023-01-07T07:28:25.751Z,9.57
2023-01-07T07:33:29.900Z,7.90
2023-01-07T07:38:35.053Z,13.73
2023-01-07T07:43:39.386Z,10.65
2023-01-07T07:48:43.009Z,12.35
2023-01-07T07:53:48.166Z,11.88
2023-01-07T07:58:51.687Z,10.95
2023-01-07T08:03:55.399Z,11.75
2023-01-07T08:09:00.802Z,9.88
2023-01-07T08:14:04.413Z,11.27
2023-01-07T08:19:07.890Z,14.82
2023-01-07T08:24:13.193Z,16.17
2023-01-07T08:29:16.906Z,14.25
2023-01-07T08:34:20.667Z,12.82
2023-01-07T08:39:25.748Z,11.45
2023-01-07T08:44:29.217Z,10.40
2023-01-07T08:49:33.198Z,10.85
2023-01-07T08:54:38.269Z,11.88
2023-01-07T08:59:43.498Z,9.77
2023-01-07T09:04:47.448Z,12.90
2023-01-07T09:09:52.551Z,14.52
2023-01-07T09:14:56.334Z,11.30
2023-01-07T09:20:03.524Z,12.02
2023-01-07T09:25:09.285Z,10.73
2023-01-07T09:30:13.966Z,14.40
2023-01-07T09:35:17.814Z,11.63
2023-01-07T09:40:27.905Z,9.57
2023-01-07T09:45:35.710Z,10.05
2023-01-07T09:50:51.090Z,9.13
2023-01-07T09:56:11.156Z,14.82
2023-01-07T10:01:24.420Z,9.07
2023-01-07T10:06:43.438Z,8.88
2023-01-07T10:12:07.262Z,9.60
2023-01-07T10:17:22.001Z,11.13
2023-01-07T10:22:32.928Z,8.43
2023-01-07T10:27:42.521Z,10.23
2023-01-07T10:32:47.965Z,8.27
2023-01-07T10:37:52.309Z,8.35
2023-01-07T10:43:02.443Z,10.75
2023-01-07T10:48:24.025Z,11.50
2023-01-07T10:53:35.879Z,13.05
2023-01-07T10:58:43.015Z,13.55
2023-01-07T11:03:50.308Z,12.05
2023-01-07T11:08:54.991Z,9.30
2023-01-07T11:14:03.731Z,13.48
2023-01-07T11:19:09.726Z,11.32
2023-01-07T11:24:30.934Z,9.02
2023-01-07T11:29:39.785Z,10.35
2023-01-07T11:34:56.298Z,8.25
2023-01-07T11:40:00.916Z,7.75
2023-01-07T11:45:16.218Z,8.98
2023-01-07T11:50:26.117Z,11.05
2023-01-07T11:55:30.701Z,9.82
2023-01-07T12:00:35.555Z,11.07
2023-01-07T12:05:40.088Z,9.85
2023-01-07T12:10:44.344Z,9.10
2023-01-07T12:15:54.018Z,9.10
2023-01-07T12:21:25.998Z,10.52
2023-01-07T12:26:36.702Z,9.68
2023-01-07T12:31:52.675Z,10.43
2023-01-07T12:37:01.521Z,10.68
2023-01-07T12:42:10.516Z,9.82
2023-01-07T12:47:31.276Z,9.68
2023-01-07T12:52:44.436Z,9.33
2023-01-07T12:57:58.187Z,9.25
2023-01-07T13:03:11.060Z,9.45
2023-01-07T13:08:24.382Z,7.97
2023-01-07T13:13:33.943Z,7.85
2023-01-07T13:18:38.904Z,8.65
2023-01-07T13:24:07.697Z,6.88
2023-01-07T13:29:22.688Z,6.22
2023-01-07T13:34:40.423Z,6.63
2023-01-07T13:40:02.621Z,6.38
2023-01-07T13:45:12.347Z,7.20
2023-01-07T13:50:26.551Z,8.50
2023-01-07T13:55:41.977Z,7.60
2023-01-07T14:01:03.231Z,7.85
2023-01-07T14:06:44.094Z,7.93
2023-01-07T14:12:24.765Z,9.25
2023-01-07T14:17:35.158Z,11.15
2023-01-07T14:22:48.616Z,13.70
2023-01-07T14:28:08.608Z,11.85
2023-01-07T14:33:20.736Z,14.85
2023-01-07T14:39:07.176Z,16.40
2023-01-07T14:44:30.328Z,12.70
2023-01-07T14:50:03.231Z,13.38
2023-01-07T14:55:27.540Z,14.55
2023-01-07T15:01:09.046Z,14.95
2023-01-07T15:06:21.785Z,19.92
2023-01-07T15:11:44.923Z,18.95
2023-01-07T15:16:55.527Z,14.88
2023-01-07T15:22:08.160Z,15.18
2023-01-07T15:27:20.209Z,14.85
2023-01-07T15:32:36.177Z,21.45
2023-01-07T15:37:46.077Z,28.15
2023-01-07T15:42:52.511Z,25.73
2023-01-07T15:48:09.295Z,22.42
2023-01-07T15:53:20.755Z,25.52
2023-01-07T15:58:30.203Z,29.98
2023-01-07T16:03:39.609Z,35.67
2023-01-07T16:08:45.625Z,33.30
2023-01-07T16:13:58.023Z,34.00
2023-01-07T16:19:04.811Z,38.05
2023-01-07T16:24:08.666Z,36.80
2023-01-07T16:29:20.424Z,38.58
2023-01-07T16:34:57.228Z,50.33
2023-01-07T16:40:01.124Z,45.40
2023-01-07T16:45:21.396Z,31.52
2023-01-07T16:50:41.636Z,29.20
2023-01-07T16:55:50.333Z,34.70
2023-01-07T17:00:55.777Z,38.70
2023-01-07T17:06:04.535Z,37.60
2023-01-07T17:11:17.920Z,34.33
2023-01-07T17:16:34.333Z,32.40
2023-01-07T17:21:44.301Z,34.92
2023-01-07T17:26:47.783Z,40.20
2023-01-07T17:31:51.273Z,42.65
2023-01-07T17:36:56.088Z,43.35
2023-01-07T17:42:17.138Z,46.78
2023-01-07T17:47:22.331Z,43.20
2023-01-07T17:52:27.446Z,50.92
2023-01-07T17:57:30.887Z,50.45
2023-01-07T18:02:34.381Z,51.45
2023-01-07T18:07:39.345Z,53.20
2023-01-07T18:12:43.676Z,45.03
2023-01-07T18:17:47.802Z,41.15
2023-01-07T18:22:52.597Z,43.22
2023-01-07T18:27:56.599Z,43.05
2023-01-07T18:33:00.373Z,43.35
2023-01-07T18:38:05.324Z,44.53
2023-01-07T18:43:12.013Z,45.35
2023-01-07T18:48:20.243Z,43.63
2023-01-07T18:53:27.201Z,44.42
2023-01-07T18:58:30.904Z,46.80
2023-01-07T19:03:34.597Z,44.38
2023-01-07T19:08:40.002Z,50.03
2023-01-07T19:13:43.671Z,55.38
2023-01-07T19:18:47.165Z,49.85
2023-01-07T19:23:52.105Z,53.38
2023-01-07T19:28:55.587Z,50.75
2023-01-07T19:33:59.051Z,47.95
2023-01-07T19:39:03.816Z,49.72
2023-01-07T19:44:07.663Z,45.60
2023-01-07T19:49:13.448Z,47.15
2023-01-07T19:54:18.466Z,48.10
2023-01-07T19:59:22.107Z,43.38
2023-01-07T20:04:27.313Z,54.40
2023-01-07T20:09:32.884Z,55.40
2023-01-07T20:14:36.370Z,50.22
2023-01-07T20:19:39.819Z,55.45
2023-01-07T20:24:46.722Z,58.35
2023-01-07T20:29:50.182Z,64.40
2023-01-07T20:34:53.667Z,73.38
2023-01-07T20:39:58.519Z,68.38
2023-01-07T20:45:01.935Z,65.20
2023-01-07T20:50:06.033Z,63.65
2023-01-07T20:55:11.693Z,59.70
2023-01-07T21:00:17.944Z,59.50
2023-01-07T21:05:23.225Z,61.72
2023-01-07T21:10:28.106Z,55.30
2023-01-07T21:15:32.006Z,60.08
2023-01-07T21:20:35.739Z,63.13
2023-01-07T21:25:40.828Z,65.28
2023-01-07T21:30:44.581Z,64.43
2023-01-07T21:35:50.269Z,60.35
2023-01-07T21:40:55.164Z,65.32
2023-01-07T21:46:00.592Z,64.65
2023-01-07T21:51:05.864Z,57.85
2023-01-07T21:56:12.626Z,67.18
2023-01-07T22:01:17.173Z,59.90
2023-01-07T22:06:22.336Z,62.90
2023-01-07T22:11:27.821Z,58.67
2023-01-07T22:16:33.036Z,58.65
2023-01-07T22:21:37.150Z,58.28
2023-01-07T22:26:43.011Z,61.47
2023-01-07T22:31:49.712Z,60.03
2023-01-07T22:36:58.761Z,64.05
2023-01-07T22:42:07.048Z,61.55
2023-01-07T22:47:14.236Z,57.45
2023-01-07T22:52:19.402Z,62.10
2023-01-07T22:57:24.636Z,54.47
2023-01-07T23:02:28.942Z,54.60
2023-01-07T23:07:32.468Z,61.55
2023-01-07T23:12:37.546Z,54.10
2023-01-07T23:17:41.705Z,45.63
2023-01-07T23:22:45.151Z,41.22
2023-01-07T23:27:51.190Z,43.67
2023-01-07T23:32:54.666Z,46.13
2023-01-07T23:37:58.379Z,40.30
2023-01-07T23:43:04.348Z,42.38
2023-01-07T23:48:08.209Z,42.72
2023-01-07T23:53:11.626Z,39.08
2023-01-07T23:58:16.886Z,36.33
